sensor_id;sensor_type;location;lat;lon;timestamp;P1;durP1;ratioP1;P2;durP2;ratioP2
3036;SDS011;1528;52.550;13.408;2023-04-03T00:01:43;15.00;;;14.40;;
3036;SDS011;1528;52.550;13.408;2023-04-03T00:04:28;17.17;;;16.17;;
3036;SDS011;1528;52.550;13.408;2023-04-03T00:07:14;17.17;;;16.47;;
3036;SDS011;1528;52.550;13.408;2023-04-03T00:09:59;14.90;;;14.30;;
3036;SDS011;1528;52.550;13.408;2023-04-03T00:12:46;16.40;;;15.53;;
3036;SDS011;1528;52.550;13.408;2023-04-03T00:15:32;15.80;;;15.13;;
3036;SDS011;1528;52.550;13.408;2023-04-03T00:18:18;16.13;;;15.43;;
3036;SDS011;1528;52.550;13.408;2023-04-03T00:21:04;14.87;;;14.17;;
3036;SDS011;1528;52.550;13.408;2023-04-03T00:23:50;16.97;;;15.97;;
3036;SDS011;1528;52.550;13.408;2023-04-03T00:26:36;14.70;;;13.90;;
3036;SDS011;1528;52.550;13.408;2023-04-03T00:29:23;12.97;;;12.20;;
3036;SDS011;1528;52.550;13.408;2023-04-03T00:32:09;13.17;;;12.57;;
3036;SDS011;1528;52.550;13.408;2023-04-03T00:34:54;13.70;;;12.90;;
3036;SDS011;1528;52.550;13.408;2023-04-03T00:37:40;13.70;;;13.13;;
3036;SDS011;1528;52.550;13.408;2023-04-03T00:40:26;14.23;;;13.63;;
3036;SDS011;1528;52.550;13.408;2023-04-03T00:43:13;14.17;;;13.37;;
3036;SDS011;1528;52.550;13.408;2023-04-03T00:46:02;14.57;;;13.93;;
3036;SDS011;1528;52.550;13.408;2023-04-03T00:48:48;15.47;;;14.67;;
3036;SDS011;1528;52.550;13.408;2023-04-03T00:51:34;15.80;;;15.00;;
3036;SDS011;1528;52.550;13.408;2023-04-03T00:54:20;14.73;;;14.10;;
3036;SDS011;1528;52.550;13.408;2023-04-03T00:57:05;15.23;;;14.60;;
3036;SDS011;1528;52.550;13.408;2023-04-03T00:59:54;15.53;;;14.30;;
3036;SDS011;1528;52.550;13.408;2023-04-03T01:02:46;13.13;;;12.53;;
3036;SDS011;1528;52.550;13.408;2023-04-03T01:05:31;14.03;;;13.27;;
3036;SDS011;1528;52.550;13.408;2023-04-03T01:08:17;12.60;;;11.97;;
3036;SDS011;1528;52.550;13.408;2023-04-03T01:11:03;14.00;;;13.40;;
3036;SDS011;1528;52.550;13.408;2023-04-03T01:13:49;13.03;;;12.43;;
3036;SDS011;1528;52.550;13.408;2023-04-03T01:16:34;12.80;;;12.00;;
3036;SDS011;1528;52.550;13.408;2023-04-03T01:19:21;13.07;;;12.37;;
3036;SDS011;1528;52.550;13.408;2023-04-03T01:22:11;13.67;;;13.07;;
3036;SDS011;1528;52.550;13.408;2023-04-03T01:25:03;13.67;;;12.87;;
3036;SDS011;1528;52.550;13.408;2023-04-03T01:27:50;13.97;;;13.07;;
3036;SDS011;1528;52.550;13.408;2023-04-03T01:30:36;13.33;;;12.73;;
3036;SDS011;1528;52.550;13.408;2023-04-03T01:33:29;14.50;;;13.63;;
3036;SDS011;1528;52.550;13.408;2023-04-03T01:36:16;14.70;;;14.00;;
3036;SDS011;1528;52.550;13.408;2023-04-03T01:39:03;13.43;;;12.80;;
3036;SDS011;1528;52.550;13.408;2023-04-03T01:41:48;14.30;;;13.53;;
3036;SDS011;1528;52.550;13.408;2023-04-03T01:44:34;14.87;;;14.33;;
3036;SDS011;1528;52.550;13.408;2023-04-03T01:47:19;13.50;;;12.57;;
3036;SDS011;1528;52.550;13.408;2023-04-03T01:50:07;14.53;;;13.93;;
3036;SDS011;1528;52.550;13.408;2023-04-03T01:52:53;17.10;;;16.20;;
3036;SDS011;1528;52.550;13.408;2023-04-03T01:55:38;16.00;;;15.00;;
3036;SDS011;1528;52.550;13.408;2023-04-03T01:58:24;13.20;;;12.60;;
3036;SDS011;1528;52.550;13.408;2023-04-03T02:01:09;13.33;;;12.80;;
3036;SDS011;1528;52.550;13.408;2023-04-03T02:03:55;14.27;;;13.57;;
3036;SDS011;1528;52.550;13.408;2023-04-03T02:06:42;15.50;;;14.67;;
3036;SDS011;1528;52.550;13.408;2023-04-03T02:09:28;14.00;;;13.20;;
3036;SDS011;1528;52.550;13.408;2023-04-03T02:12:13;14.70;;;14.17;;
3036;SDS011;1528;52.550;13.408;2023-04-03T02:14:59;15.80;;;14.67;;
3036;SDS011;1528;52.550;13.408;2023-04-03T02:17:45;15.30;;;14.70;;
3036;SDS011;1528;52.550;13.408;2023-04-03T02:20:30;13.43;;;12.63;;
3036;SDS011;1528;52.550;13.408;2023-04-03T02:23:18;12.67;;;12.27;;
3036;SDS011;1528;52.550;13.408;2023-04-03T02:26:04;13.10;;;12.40;;
3036;SDS011;1528;52.550;13.408;2023-04-03T02:28:51;13.20;;;12.50;;
3036;SDS011;1528;52.550;13.408;2023-04-03T02:31:37;14.27;;;13.63;;
3036;SDS011;1528;52.550;13.408;2023-04-03T02:34:22;11.97;;;11.20;;
3036;SDS011;1528;52.550;13.408;2023-04-03T02:37:08;13.03;;;12.50;;
3036;SDS011;1528;52.550;13.408;2023-04-03T02:39:55;11.70;;;11.13;;
3036;SDS011;1528;52.550;13.408;2023-04-03T02:42:41;14.47;;;13.53;;
3036;SDS011;1528;52.550;13.408;2023-04-03T02:45:26;15.77;;;15.07;;
3036;SDS011;1528;52.550;13.408;2023-04-03T02:48:12;15.97;;;15.17;;
3036;SDS011;1528;52.550;13.408;2023-04-03T02:50:58;14.90;;;14.20;;
3036;SDS011;1528;52.550;13.408;2023-04-03T02:53:44;14.63;;;13.60;;
3036;SDS011;1528;52.550;13.408;2023-04-03T02:56:31;14.97;;;14.27;;
3036;SDS011;1528;52.550;13.408;2023-04-03T02:59:16;12.70;;;12.20;;
3036;SDS011;1528;52.550;13.408;2023-04-03T03:02:02;16.43;;;15.63;;
3036;SDS011;1528;52.550;13.408;2023-04-03T03:04:48;14.93;;;13.90;;
3036;SDS011;1528;52.550;13.408;2023-04-03T03:07:33;13.20;;;12.70;;
3036;SDS011;1528;52.550;13.408;2023-04-03T03:10:19;15.10;;;14.40;;
3036;SDS011;1528;52.550;13.408;2023-04-03T03:13:06;15.30;;;14.70;;
3036;SDS011;1528;52.550;13.408;2023-04-03T03:15:51;14.00;;;13.30;;
3036;SDS011;1528;52.550;13.408;2023-04-03T03:18:37;14.03;;;13.43;;
3036;SDS011;1528;52.550;13.408;2023-04-03T03:21:23;16.33;;;15.63;;
3036;SDS011;1528;52.550;13.408;2023-04-03T03:24:08;12.63;;;12.03;;
3036;SDS011;1528;52.550;13.408;2023-04-03T03:26:55;13.73;;;13.13;;
3036;SDS011;1528;52.550;13.408;2023-04-03T03:29:42;14.00;;;13.40;;
3036;SDS011;1528;52.550;13.408;2023-04-03T03:32:28;14.10;;;13.50;;
3036;SDS011;1528;52.550;13.408;2023-04-03T03:35:14;14.30;;;13.60;;
3036;SDS011;1528;52.550;13.408;2023-04-03T03:37:59;12.83;;;12.23;;
3036;SDS011;1528;52.550;13.408;2023-04-03T03:40:46;13.53;;;12.80;;
3036;SDS011;1528;52.550;13.408;2023-04-03T03:43:32;14.40;;;13.37;;
3036;SDS011;1528;52.550;13.408;2023-04-03T03:46:19;14.80;;;14.10;;
3036;SDS011;1528;52.550;13.408;2023-04-03T03:49:04;15.57;;;15.03;;
3036;SDS011;1528;52.550;13.408;2023-04-03T03:51:50;13.23;;;12.60;;
3036;SDS011;1528;52.550;13.408;2023-04-03T03:54:36;14.37;;;13.40;;
3036;SDS011;1528;52.550;13.408;2023-04-03T03:57:21;14.00;;;13.50;;
3036;SDS011;1528;52.550;13.408;2023-04-03T04:00:07;12.40;;;11.50;;
3036;SDS011;1528;52.550;13.408;2023-04-03T04:02:55;13.27;;;12.40;;
3036;SDS011;1528;52.550;13.408;2023-04-03T04:05:40;12.30;;;11.70;;
3036;SDS011;1528;52.550;13.408;2023-04-03T04:08:26;14.67;;;13.60;;
3036;SDS011;1528;52.550;13.408;2023-04-03T04:11:12;13.97;;;13.37;;
3036;SDS011;1528;52.550;13.408;2023-04-03T04:13:58;15.50;;;14.80;;
3036;SDS011;1528;52.550;13.408;2023-04-03T04:16:43;14.90;;;14.20;;
3036;SDS011;1528;52.550;13.408;2023-04-03T04:19:30;12.77;;;12.17;;
3036;SDS011;1528;52.550;13.408;2023-04-03T04:22:16;14.93;;;14.23;;
3036;SDS011;1528;52.550;13.408;2023-04-03T04:25:02;14.53;;;13.73;;
3036;SDS011;1528;52.550;13.408;2023-04-03T04:27:48;15.77;;;14.97;;
3036;SDS011;1528;52.550;13.408;2023-04-03T04:30:33;14.60;;;13.43;;
3036;SDS011;1528;52.550;13.408;2023-04-03T04:33:19;14.17;;;13.33;;
3036;SDS011;1528;52.550;13.408;2023-04-03T04:36:06;15.57;;;14.93;;
3036;SDS011;1528;52.550;13.408;2023-04-03T04:38:52;15.27;;;14.27;;
3036;SDS011;1528;52.550;13.408;2023-04-03T04:41:38;14.57;;;13.87;;
3036;SDS011;1528;52.550;13.408;2023-04-03T04:44:23;16.40;;;15.70;;
3036;SDS011;1528;52.550;13.408;2023-04-03T04:47:09;15.17;;;14.47;;
3036;SDS011;1528;52.550;13.408;2023-04-03T04:49:55;13.57;;;12.87;;
3036;SDS011;1528;52.550;13.408;2023-04-03T04:52:42;15.00;;;14.30;;
3036;SDS011;1528;52.550;13.408;2023-04-03T04:55:27;14.97;;;14.17;;
3036;SDS011;1528;52.550;13.408;2023-04-03T04:58:13;12.90;;;12.40;;
3036;SDS011;1528;52.550;13.408;2023-04-03T05:00:58;13.83;;;13.23;;
3036;SDS011;1528;52.550;13.408;2023-04-03T05:03:44;15.27;;;14.57;;
3036;SDS011;1528;52.550;13.408;2023-04-03T05:06:31;14.33;;;13.43;;
3036;SDS011;1528;52.550;13.408;2023-04-03T05:09:19;16.63;;;15.93;;
3036;SDS011;1528;52.550;13.408;2023-04-03T05:12:06;16.13;;;15.37;;
3036;SDS011;1528;52.550;13.408;2023-04-03T05:14:51;13.97;;;13.30;;
3036;SDS011;1528;52.550;13.408;2023-04-03T05:17:37;14.60;;;14.00;;
3036;SDS011;1528;52.550;13.408;2023-04-03T05:20:22;15.47;;;14.60;;
3036;SDS011;1528;52.550;13.408;2023-04-03T05:23:08;18.63;;;17.60;;
3036;SDS011;1528;52.550;13.408;2023-04-03T05:25:55;14.87;;;14.00;;
3036;SDS011;1528;52.550;13.408;2023-04-03T05:28:41;15.60;;;14.90;;
3036;SDS011;1528;52.550;13.408;2023-04-03T05:31:27;16.50;;;15.80;;
3036;SDS011;1528;52.550;13.408;2023-04-03T05:34:14;13.83;;;13.23;;
3036;SDS011;1528;52.550;13.408;2023-04-03T05:36:59;17.93;;;16.13;;
3036;SDS011;1528;52.550;13.408;2023-04-03T05:39:46;33.00;;;29.17;;
3036;SDS011;1528;52.550;13.408;2023-04-03T05:42:34;17.53;;;16.47;;
3036;SDS011;1528;52.550;13.408;2023-04-03T05:45:19;17.67;;;16.77;;
3036;SDS011;1528;52.550;13.408;2023-04-03T05:48:05;16.80;;;16.00;;
3036;SDS011;1528;52.550;13.408;2023-04-03T05:50:50;17.40;;;16.40;;
3036;SDS011;1528;52.550;13.408;2023-04-03T05:53:36;15.30;;;14.50;;
3036;SDS011;1528;52.550;13.408;2023-04-03T05:56:22;14.70;;;14.00;;
3036;SDS011;1528;52.550;13.408;2023-04-03T05:59:09;13.00;;;12.40;;
3036;SDS011;1528;52.550;13.408;2023-04-03T06:01:54;14.50;;;13.53;;
3036;SDS011;1528;52.550;13.408;2023-04-03T06:04:40;13.50;;;12.90;;
3036;SDS011;1528;52.550;13.408;2023-04-03T06:07:25;14.47;;;13.73;;
3036;SDS011;1528;52.550;13.408;2023-04-03T06:10:12;16.10;;;15.37;;
3036;SDS011;1528;52.550;13.408;2023-04-03T06:12:57;14.77;;;14.27;;
3036;SDS011;1528;52.550;13.408;2023-04-03T06:15:44;14.93;;;13.97;;
3036;SDS011;1528;52.550;13.408;2023-04-03T06:18:30;14.17;;;13.37;;
3036;SDS011;1528;52.550;13.408;2023-04-03T06:21:16;13.60;;;13.00;;
3036;SDS011;1528;52.550;13.408;2023-04-03T06:24:02;14.30;;;13.17;;
3036;SDS011;1528;52.550;13.408;2023-04-03T06:26:48;19.17;;;18.37;;
3036;SDS011;1528;52.550;13.408;2023-04-03T06:29:35;15.77;;;14.80;;
3036;SDS011;1528;52.550;13.408;2023-04-03T06:32:22;14.60;;;13.90;;
3036;SDS011;1528;52.550;13.408;2023-04-03T06:35:08;13.90;;;13.40;;
3036;SDS011;1528;52.550;13.408;2023-04-03T06:37:54;12.83;;;12.13;;
3036;SDS011;1528;52.550;13.408;2023-04-03T06:40:40;14.17;;;13.57;;
3036;SDS011;1528;52.550;13.408;2023-04-03T06:43:25;17.13;;;15.97;;
3036;SDS011;1528;52.550;13.408;2023-04-03T06:46:14;16.57;;;15.87;;
3036;SDS011;1528;52.550;13.408;2023-04-03T06:49:02;18.23;;;17.53;;
3036;SDS011;1528;52.550;13.408;2023-04-03T06:51:48;19.70;;;18.83;;
3036;SDS011;1528;52.550;13.408;2023-04-03T06:54:34;18.47;;;17.53;;
3036;SDS011;1528;52.550;13.408;2023-04-03T06:57:20;19.17;;;18.40;;
3036;SDS011;1528;52.550;13.408;2023-04-03T07:00:06;13.73;;;13.20;;
3036;SDS011;1528;52.550;13.408;2023-04-03T07:02:53;15.03;;;14.40;;
3036;SDS011;1528;52.550;13.408;2023-04-03T07:05:41;14.60;;;14.00;;
3036;SDS011;1528;52.550;13.408;2023-04-03T07:08:28;15.03;;;14.33;;
3036;SDS011;1528;52.550;13.408;2023-04-03T07:11:14;15.03;;;14.07;;
3036;SDS011;1528;52.550;13.408;2023-04-03T07:14:00;17.03;;;16.20;;
3036;SDS011;1528;52.550;13.408;2023-04-03T07:16:46;17.00;;;16.30;;
3036;SDS011;1528;52.550;13.408;2023-04-03T07:19:32;18.93;;;18.13;;
3036;SDS011;1528;52.550;13.408;2023-04-03T07:22:19;14.03;;;13.43;;
3036;SDS011;1528;52.550;13.408;2023-04-03T07:25:04;15.60;;;15.07;;
3036;SDS011;1528;52.550;13.408;2023-04-03T07:27:51;13.30;;;12.40;;
3036;SDS011;1528;52.550;13.408;2023-04-03T07:30:44;13.70;;;13.20;;
3036;SDS011;1528;52.550;13.408;2023-04-03T07:33:31;15.67;;;15.07;;
3036;SDS011;1528;52.550;13.408;2023-04-03T07:36:18;16.27;;;15.30;;
3036;SDS011;1528;52.550;13.408;2023-04-03T07:39:06;14.07;;;13.37;;
3036;SDS011;1528;52.550;13.408;2023-04-03T07:41:52;13.53;;;12.93;;
3036;SDS011;1528;52.550;13.408;2023-04-03T07:44:39;15.23;;;14.53;;
3036;SDS011;1528;52.550;13.408;2023-04-03T07:47:24;15.53;;;14.83;;
3036;SDS011;1528;52.550;13.408;2023-04-03T07:50:10;15.27;;;14.63;;
3036;SDS011;1528;52.550;13.408;2023-04-03T07:52:55;14.03;;;13.43;;
3036;SDS011;1528;52.550;13.408;2023-04-03T07:55:42;12.97;;;12.47;;
3036;SDS011;1528;52.550;13.408;2023-04-03T07:58:31;12.90;;;12.30;;
3036;SDS011;1528;52.550;13.408;2023-04-03T08:01:16;10.70;;;10.20;;
3036;SDS011;1528;52.550;13.408;2023-04-03T08:04:01;11.03;;;10.63;;
3036;SDS011;1528;52.550;13.408;2023-04-03T08:06:47;11.87;;;11.20;;
3036;SDS011;1528;52.550;13.408;2023-04-03T08:09:33;12.30;;;11.80;;
3036;SDS011;1528;52.550;13.408;2023-04-03T08:12:20;12.43;;;11.83;;
3036;SDS011;1528;52.550;13.408;2023-04-03T08:15:05;14.17;;;13.63;;
3036;SDS011;1528;52.550;13.408;2023-04-03T08:17:52;14.20;;;13.70;;
3036;SDS011;1528;52.550;13.408;2023-04-03T08:20:38;15.00;;;14.30;;
3036;SDS011;1528;52.550;13.408;2023-04-03T08:23:25;14.00;;;13.50;;
3036;SDS011;1528;52.550;13.408;2023-04-03T08:26:12;12.30;;;11.70;;
3036;SDS011;1528;52.550;13.408;2023-04-03T08:29:00;14.67;;;14.00;;
3036;SDS011;1528;52.550;13.408;2023-04-03T08:31:46;13.27;;;12.63;;
3036;SDS011;1528;52.550;13.408;2023-04-03T08:34:33;14.93;;;14.30;;
3036;SDS011;1528;52.550;13.408;2023-04-03T08:37:20;15.83;;;15.17;;
3036;SDS011;1528;52.550;13.408;2023-04-03T08:40:07;15.20;;;14.53;;
3036;SDS011;1528;52.550;13.408;2023-04-03T08:43:01;14.00;;;13.50;;
3036;SDS011;1528;52.550;13.408;2023-04-03T08:46:00;19.63;;;18.93;;
3036;SDS011;1528;52.550;13.408;2023-04-03T08:48:50;15.63;;;15.10;;
3036;SDS011;1528;52.550;13.408;2023-04-03T08:51:36;15.20;;;14.60;;
3036;SDS011;1528;52.550;13.408;2023-04-03T08:54:28;14.60;;;14.10;;
3036;SDS011;1528;52.550;13.408;2023-04-03T08:57:15;16.83;;;16.33;;
3036;SDS011;1528;52.550;13.408;2023-04-03T09:00:05;13.23;;;12.73;;
3036;SDS011;1528;52.550;13.408;2023-04-03T09:03:01;12.03;;;11.30;;
3036;SDS011;1528;52.550;13.408;2023-04-03T09:05:48;16.27;;;15.53;;
3036;SDS011;1528;52.550;13.408;2023-04-03T09:08:40;17.73;;;17.00;;
3036;SDS011;1528;52.550;13.408;2023-04-03T09:11:35;14.40;;;13.57;;
3036;SDS011;1528;52.550;13.408;2023-04-03T09:14:29;14.63;;;14.03;;
3036;SDS011;1528;52.550;13.408;2023-04-03T09:17:21;13.63;;;13.03;;
3036;SDS011;1528;52.550;13.408;2023-04-03T09:20:21;13.37;;;12.80;;
3036;SDS011;1528;52.550;13.408;2023-04-03T09:23:19;13.23;;;12.73;;
3036;SDS011;1528;52.550;13.408;2023-04-03T09:26:10;15.33;;;14.83;;
3036;SDS011;1528;52.550;13.408;2023-04-03T09:29:02;16.20;;;15.70;;
3036;SDS011;1528;52.550;13.408;2023-04-03T09:31:52;14.70;;;14.20;;
3036;SDS011;1528;52.550;13.408;2023-04-03T09:34:41;15.90;;;15.30;;
3036;SDS011;1528;52.550;13.408;2023-04-03T09:37:40;14.87;;;14.30;;
3036;SDS011;1528;52.550;13.408;2023-04-03T09:40:28;15.03;;;14.53;;
3036;SDS011;1528;52.550;13.408;2023-04-03T09:43:22;17.00;;;16.50;;
3036;SDS011;1528;52.550;13.408;2023-04-03T09:46:17;13.90;;;13.40;;
3036;SDS011;1528;52.550;13.408;2023-04-03T09:49:09;15.20;;;14.60;;
3036;SDS011;1528;52.550;13.408;2023-04-03T09:51:57;14.00;;;13.50;;
3036;SDS011;1528;52.550;13.408;2023-04-03T09:54:45;12.70;;;12.07;;
3036;SDS011;1528;52.550;13.408;2023-04-03T09:57:32;18.30;;;17.60;;
3036;SDS011;1528;52.550;13.408;2023-04-03T10:00:22;15.60;;;15.00;;
3036;SDS011;1528;52.550;13.408;2023-04-03T10:03:20;12.90;;;12.37;;
3036;SDS011;1528;52.550;13.408;2023-04-03T10:06:21;13.23;;;12.77;;
3036;SDS011;1528;52.550;13.408;2023-04-03T10:09:14;14.23;;;13.83;;
3036;SDS011;1528;52.550;13.408;2023-04-03T10:12:06;11.50;;;11.10;;
3036;SDS011;1528;52.550;13.408;2023-04-03T10:14:54;12.10;;;11.60;;
3036;SDS011;1528;52.550;13.408;2023-04-03T10:17:47;14.57;;;13.93;;
3036;SDS011;1528;52.550;13.408;2023-04-03T10:20:40;14.93;;;14.43;;
3036;SDS011;1528;52.550;13.408;2023-04-03T10:23:31;15.93;;;15.33;;
3036;SDS011;1528;52.550;13.408;2023-04-03T10:26:26;12.67;;;11.83;;
3036;SDS011;1528;52.550;13.408;2023-04-03T10:29:26;14.27;;;13.77;;
3036;SDS011;1528;52.550;13.408;2023-04-03T10:32:24;16.20;;;15.60;;
3036;SDS011;1528;52.550;13.408;2023-04-03T10:35:20;14.23;;;13.67;;
3036;SDS011;1528;52.550;13.408;2023-04-03T10:38:20;15.10;;;14.60;;
3036;SDS011;1528;52.550;13.408;2023-04-03T10:41:16;14.80;;;14.30;;
3036;SDS011;1528;52.550;13.408;2023-04-03T10:44:10;19.10;;;18.40;;
3036;SDS011;1528;52.550;13.408;2023-04-03T10:47:05;12.97;;;12.50;;
3036;SDS011;1528;52.550;13.408;2023-04-03T10:50:00;14.30;;;13.70;;
3036;SDS011;1528;52.550;13.408;2023-04-03T10:53:08;17.13;;;16.63;;
3036;SDS011;1528;52.550;13.408;2023-04-03T10:56:05;16.77;;;16.07;;
3036;SDS011;1528;52.550;13.408;2023-04-03T10:59:02;14.53;;;14.07;;
3036;SDS011;1528;52.550;13.408;2023-04-03T11:02:01;17.83;;;17.23;;
3036;SDS011;1528;52.550;13.408;2023-04-03T11:04:53;17.17;;;16.57;;
3036;SDS011;1528;52.550;13.408;2023-04-03T11:07:45;18.70;;;18.03;;
3036;SDS011;1528;52.550;13.408;2023-04-03T11:10:36;20.43;;;19.53;;
3036;SDS011;1528;52.550;13.408;2023-04-03T11:13:28;19.30;;;18.60;;
3036;SDS011;1528;52.550;13.408;2023-04-03T11:16:19;18.83;;;18.23;;
3036;SDS011;1528;52.550;13.408;2023-04-03T11:19:10;16.10;;;15.67;;
3036;SDS011;1528;52.550;13.408;2023-04-03T11:22:08;17.33;;;16.70;;
3036;SDS011;1528;52.550;13.408;2023-04-03T11:24:59;20.37;;;19.77;;
3036;SDS011;1528;52.550;13.408;2023-04-03T11:27:51;17.10;;;16.43;;
3036;SDS011;1528;52.550;13.408;2023-04-03T11:30:42;17.23;;;16.60;;
3036;SDS011;1528;52.550;13.408;2023-04-03T11:33:41;15.00;;;14.47;;
3036;SDS011;1528;52.550;13.408;2023-04-03T11:36:32;16.10;;;15.70;;
3036;SDS011;1528;52.550;13.408;2023-04-03T11:39:23;16.73;;;15.93;;
3036;SDS011;1528;52.550;13.408;2023-04-03T11:42:16;17.87;;;17.27;;
3036;SDS011;1528;52.550;13.408;2023-04-03T11:45:17;15.63;;;15.10;;
3036;SDS011;1528;52.550;13.408;2023-04-03T11:54:44;15.70;;;15.20;;
3036;SDS011;1528;52.550;13.408;2023-04-03T12:00:48;23.97;;;23.27;;
3036;SDS011;1528;52.550;13.408;2023-04-03T12:06:52;18.03;;;17.27;;
3036;SDS011;1528;52.550;13.408;2023-04-03T12:10:02;17.70;;;17.03;;
3036;SDS011;1528;52.550;13.408;2023-04-03T12:13:12;18.00;;;17.23;;
3036;SDS011;1528;52.550;13.408;2023-04-03T12:16:00;15.80;;;15.30;;
3036;SDS011;1528;52.550;13.408;2023-04-03T12:18:55;15.67;;;15.07;;
3036;SDS011;1528;52.550;13.408;2023-04-03T12:22:10;16.93;;;16.43;;
3036;SDS011;1528;52.550;13.408;2023-04-03T12:25:00;17.20;;;16.60;;
3036;SDS011;1528;52.550;13.408;2023-04-03T12:28:24;18.53;;;17.93;;
3036;SDS011;1528;52.550;13.408;2023-04-03T12:31:11;16.90;;;16.03;;
3036;SDS011;1528;52.550;13.408;2023-04-03T12:33:59;16.73;;;16.03;;
3036;SDS011;1528;52.550;13.408;2023-04-03T12:36:59;17.70;;;16.80;;
3036;SDS011;1528;52.550;13.408;2023-04-03T12:39:52;19.50;;;18.70;;
3036;SDS011;1528;52.550;13.408;2023-04-03T12:42:52;18.63;;;17.93;;
3036;SDS011;1528;52.550;13.408;2023-04-03T12:45:56;18.80;;;18.07;;
3036;SDS011;1528;52.550;13.408;2023-04-03T12:48:47;17.03;;;16.20;;
3036;SDS011;1528;52.550;13.408;2023-04-03T12:51:36;14.87;;;14.23;;
3036;SDS011;1528;52.550;13.408;2023-04-03T12:54:26;14.50;;;14.10;;
3036;SDS011;1528;52.550;13.408;2023-04-03T12:57:18;15.13;;;14.43;;
3036;SDS011;1528;52.550;13.408;2023-04-03T13:00:18;17.80;;;17.10;;
3036;SDS011;1528;52.550;13.408;2023-04-03T13:03:20;18.87;;;18.07;;
3036;SDS011;1528;52.550;13.408;2023-04-03T13:06:10;17.43;;;16.83;;
3036;SDS011;1528;52.550;13.408;2023-04-03T13:09:02;17.40;;;16.80;;
3036;SDS011;1528;52.550;13.408;2023-04-03T13:11:49;18.17;;;17.67;;
3036;SDS011;1528;52.550;13.408;2023-04-03T13:14:37;19.97;;;19.37;;
3036;SDS011;1528;52.550;13.408;2023-04-03T13:17:24;17.73;;;17.23;;
3036;SDS011;1528;52.550;13.408;2023-04-03T13:20:12;16.57;;;16.07;;
3036;SDS011;1528;52.550;13.408;2023-04-03T13:23:00;18.13;;;17.63;;
3036;SDS011;1528;52.550;13.408;2023-04-03T13:25:49;19.20;;;18.30;;
3036;SDS011;1528;52.550;13.408;2023-04-03T13:28:35;16.40;;;15.77;;
3036;SDS011;1528;52.550;13.408;2023-04-03T13:31:26;17.53;;;16.90;;
3036;SDS011;1528;52.550;13.408;2023-04-03T13:34:19;16.80;;;16.23;;
3036;SDS011;1528;52.550;13.408;2023-04-03T13:37:11;18.07;;;17.57;;
3036;SDS011;1528;52.550;13.408;2023-04-03T13:40:10;18.40;;;17.67;;
3036;SDS011;1528;52.550;13.408;2023-04-03T13:43:02;19.63;;;19.03;;
3036;SDS011;1528;52.550;13.408;2023-04-03T13:45:54;19.47;;;18.77;;
3036;SDS011;1528;52.550;13.408;2023-04-03T13:48:44;17.47;;;16.87;;
3036;SDS011;1528;52.550;13.408;2023-04-03T13:51:31;15.40;;;14.90;;
3036;SDS011;1528;52.550;13.408;2023-04-03T13:54:19;17.13;;;16.50;;
3036;SDS011;1528;52.550;13.408;2023-04-03T13:57:11;17.00;;;16.30;;
3036;SDS011;1528;52.550;13.408;2023-04-03T13:59:59;18.57;;;18.03;;
3036;SDS011;1528;52.550;13.408;2023-04-03T14:03:11;26.77;;;25.23;;
3036;SDS011;1528;52.550;13.408;2023-04-03T14:06:05;19.40;;;18.53;;
3036;SDS011;1528;52.550;13.408;2023-04-03T14:08:52;18.73;;;18.10;;
3036;SDS011;1528;52.550;13.408;2023-04-03T14:11:38;19.90;;;19.10;;
3036;SDS011;1528;52.550;13.408;2023-04-03T14:14:26;20.10;;;19.40;;
3036;SDS011;1528;52.550;13.408;2023-04-03T14:17:15;21.97;;;21.23;;
3036;SDS011;1528;52.550;13.408;2023-04-03T14:20:02;21.60;;;20.90;;
3036;SDS011;1528;52.550;13.408;2023-04-03T14:22:49;21.13;;;20.50;;
3036;SDS011;1528;52.550;13.408;2023-04-03T14:25:36;24.70;;;23.90;;
3036;SDS011;1528;52.550;13.408;2023-04-03T14:28:22;24.30;;;23.50;;
3036;SDS011;1528;52.550;13.408;2023-04-03T14:31:08;19.40;;;18.60;;
3036;SDS011;1528;52.550;13.408;2023-04-03T14:33:55;15.40;;;14.83;;
3036;SDS011;1528;52.550;13.408;2023-04-03T14:36:41;15.50;;;15.03;;
3036;SDS011;1528;52.550;13.408;2023-04-03T14:39:30;16.57;;;16.17;;
3036;SDS011;1528;52.550;13.408;2023-04-03T14:42:16;17.40;;;16.73;;
3036;SDS011;1528;52.550;13.408;2023-04-03T14:45:04;19.07;;;18.50;;
3036;SDS011;1528;52.550;13.408;2023-04-03T14:47:52;21.50;;;20.63;;
3036;SDS011;1528;52.550;13.408;2023-04-03T14:50:39;18.47;;;17.77;;
3036;SDS011;1528;52.550;13.408;2023-04-03T14:53:25;19.77;;;19.17;;
3036;SDS011;1528;52.550;13.408;2023-04-03T14:56:16;19.40;;;18.80;;
3036;SDS011;1528;52.550;13.408;2023-04-03T14:59:08;20.43;;;19.67;;
3036;SDS011;1528;52.550;13.408;2023-04-03T15:01:56;15.63;;;15.03;;
3036;SDS011;1528;52.550;13.408;2023-04-03T15:04:41;15.90;;;15.20;;
3036;SDS011;1528;52.550;13.408;2023-04-03T15:07:28;16.23;;;15.63;;
3036;SDS011;1528;52.550;13.408;2023-04-03T15:10:17;17.90;;;17.20;;
3036;SDS011;1528;52.550;13.408;2023-04-03T15:13:06;15.20;;;14.70;;
3036;SDS011;1528;52.550;13.408;2023-04-03T15:15:53;20.13;;;19.33;;
3036;SDS011;1528;52.550;13.408;2023-04-03T15:18:38;18.17;;;17.47;;
3036;SDS011;1528;52.550;13.408;2023-04-03T15:21:24;21.00;;;20.07;;
3036;SDS011;1528;52.550;13.408;2023-04-03T15:24:10;21.03;;;20.33;;
3036;SDS011;1528;52.550;13.408;2023-04-03T15:26:56;19.43;;;18.73;;
3036;SDS011;1528;52.550;13.408;2023-04-03T15:29:43;17.83;;;17.33;;
3036;SDS011;1528;52.550;13.408;2023-04-03T15:32:29;16.33;;;15.73;;
3036;SDS011;1528;52.550;13.408;2023-04-03T15:35:15;18.17;;;17.67;;
3036;SDS011;1528;52.550;13.408;2023-04-03T15:38:01;14.63;;;14.13;;
3036;SDS011;1528;52.550;13.408;2023-04-03T15:40:46;17.63;;;17.00;;
3036;SDS011;1528;52.550;13.408;2023-04-03T15:43:32;14.77;;;14.17;;
3036;SDS011;1528;52.550;13.408;2023-04-03T15:46:20;14.40;;;13.60;;
3036;SDS011;1528;52.550;13.408;2023-04-03T15:49:06;16.77;;;15.87;;
3036;SDS011;1528;52.550;13.408;2023-04-03T15:51:51;16.73;;;16.10;;
3036;SDS011;1528;52.550;13.408;2023-04-03T15:54:37;15.63;;;15.03;;
3036;SDS011;1528;52.550;13.408;2023-04-03T15:57:23;12.50;;;12.00;;
3036;SDS011;1528;52.550;13.408;2023-04-03T16:00:10;14.60;;;14.10;;
3036;SDS011;1528;52.550;13.408;2023-04-03T16:02:59;12.83;;;12.33;;
3036;SDS011;1528;52.550;13.408;2023-04-03T16:05:48;15.00;;;14.40;;
3036;SDS011;1528;52.550;13.408;2023-04-03T16:08:34;15.30;;;14.50;;
3036;SDS011;1528;52.550;13.408;2023-04-03T16:11:21;15.53;;;14.93;;
3036;SDS011;1528;52.550;13.408;2023-04-03T16:14:07;16.97;;;16.47;;
3036;SDS011;1528;52.550;13.408;2023-04-03T16:16:53;20.10;;;19.20;;
3036;SDS011;1528;52.550;13.408;2023-04-03T16:19:40;12.27;;;11.70;;
3036;SDS011;1528;52.550;13.408;2023-04-03T16:22:26;16.20;;;15.13;;
3036;SDS011;1528;52.550;13.408;2023-04-03T16:25:13;15.43;;;14.73;;
3036;SDS011;1528;52.550;13.408;2023-04-03T16:27:59;13.07;;;12.57;;
3036;SDS011;1528;52.550;13.408;2023-04-03T16:30:45;16.03;;;15.37;;
3036;SDS011;1528;52.550;13.408;2023-04-03T16:33:31;16.30;;;15.53;;
3036;SDS011;1528;52.550;13.408;2023-04-03T16:36:18;14.20;;;13.57;;
3036;SDS011;1528;52.550;13.408;2023-04-03T16:39:04;13.63;;;13.10;;
3036;SDS011;1528;52.550;13.408;2023-04-03T16:41:49;14.97;;;14.27;;
3036;SDS011;1528;52.550;13.408;2023-04-03T16:44:35;15.83;;;15.20;;
3036;SDS011;1528;52.550;13.408;2023-04-03T16:47:23;16.00;;;15.07;;
3036;SDS011;1528;52.550;13.408;2023-04-03T16:50:09;16.23;;;15.70;;
3036;SDS011;1528;52.550;13.408;2023-04-03T16:52:56;13.90;;;13.30;;